VIV12B MUHA-MMMY
Flight info
| Callsign | VIV12B |
|---|---|
| Flight time | 2h 34m |
| Altitude | 36000 |
| Route | EPMAR4A MUPKI UR522 ALURU DCT NOTEN UT37 SESNO UJ15E RETOS RETOS1B |
| Aircraft | A320/M-SDE3FGHIRWY/LB1 |
Departure
| Time | 2026-04-26 07:10 |
|---|---|
| Airport | José Martí International Airport (MUHA) |
Arrival
| Time | 2026-04-26 09:44 |
|---|---|
| Airport | Monterrey International Airport (MMMY) |
| Time | Latitude | Longitude | Altitude | Speed | Heading |
|---|---|---|---|---|---|
| 2026-04-26 06:51 | 22.99631 | -82.40635 | 218 ft | 0 kts | 301° |
| 2026-04-26 07:01 | 22.99624 | -82.40622 | 218 ft | 2 kts | 301° |
| 2026-04-26 07:02 | 22.99617 | -82.40611 | 218 ft | 2 kts | 301° |
| 2026-04-26 07:02 | 22.99611 | -82.40599 | 218 ft | 2 kts | 301° |
| 2026-04-26 07:02 | 22.99602 | -82.40582 | 222 ft | 5 kts | 301° |
| 2026-04-26 07:02 | 22.99585 | -82.40551 | 218 ft | 3 kts | 295° |
| 2026-04-26 07:03 | 22.99582 | -82.40530 | 220 ft | 0 kts | 250° |
| 2026-04-26 07:03 | 22.99582 | -82.40531 | 217 ft | 0 kts | 250° |
| 2026-04-26 07:03 | 22.99572 | -82.40544 | 216 ft | 5 kts | 233° |
| 2026-04-26 07:04 | 22.99540 | -82.40588 | 221 ft | 11 kts | 232° |
| 2026-04-26 07:04 | 22.99481 | -82.40678 | 222 ft | 19 kts | 235° |
| 2026-04-26 07:04 | 22.99398 | -82.40807 | 216 ft | 22 kts | 235° |
| 2026-04-26 07:04 | 22.99316 | -82.40823 | 217 ft | 13 kts | 145° |
| 2026-04-26 07:05 | 22.99232 | -82.40770 | 216 ft | 15 kts | 176° |
| 2026-04-26 07:05 | 22.99160 | -82.40853 | 216 ft | 16 kts | 234° |
| 2026-04-26 07:05 | 22.99090 | -82.40959 | 222 ft | 18 kts | 234° |
| 2026-04-26 07:05 | 22.99012 | -82.41077 | 222 ft | 22 kts | 234° |
| 2026-04-26 07:06 | 22.98918 | -82.41221 | 217 ft | 24 kts | 234° |
| 2026-04-26 07:06 | 22.98816 | -82.41376 | 217 ft | 26 kts | 234° |
| 2026-04-26 07:06 | 22.98709 | -82.41540 | 218 ft | 27 kts | 234° |
| 2026-04-26 07:06 | 22.98597 | -82.41707 | 216 ft | 29 kts | 233° |
| 2026-04-26 07:07 | 22.98593 | -82.41713 | 221 ft | 29 kts | 233° |
| 2026-04-26 07:07 | 22.98471 | -82.41892 | 223 ft | 30 kts | 234° |
| 2026-04-26 07:08 | 22.98350 | -82.42076 | 217 ft | 27 kts | 235° |
| 2026-04-26 07:08 | 22.98234 | -82.42166 | 221 ft | 12 kts | 156° |
| 2026-04-26 07:08 | 22.98170 | -82.42114 | 224 ft | 12 kts | 146° |
| 2026-04-26 07:08 | 22.98156 | -82.42051 | 218 ft | 11 kts | 56° |
| 2026-04-26 07:09 | 22.98298 | -82.41841 | 221 ft | 68 kts | 54° |
| 2026-04-26 07:09 | 22.98692 | -82.41246 | 216 ft | 123 kts | 54° |
| 2026-04-26 07:09 | 22.99277 | -82.40362 | 220 ft | 164 kts | 54° |
| 2026-04-26 07:09 | 23.00000 | -82.39287 | 504 ft | 182 kts | 53° |
| 2026-04-26 07:10 | 23.02402 | -82.35650 | 1836 ft | 228 kts | 54° |
| 2026-04-26 07:11 | 23.04432 | -82.32570 | 2666 ft | 274 kts | 55° |
| 2026-04-26 07:11 | 23.05589 | -82.30823 | 3092 ft | 295 kts | 55° |
| 2026-04-26 07:11 | 23.06663 | -82.29202 | 3411 ft | 314 kts | 55° |
| 2026-04-26 07:11 | 23.07986 | -82.27205 | 3716 ft | 336 kts | 54° |
| 2026-04-26 07:12 | 23.09393 | -82.25079 | 3914 ft | 358 kts | 55° |
| 2026-04-26 07:12 | 23.10879 | -82.22831 | 4178 ft | 373 kts | 54° |
| 2026-04-26 07:12 | 23.12436 | -82.20546 | 4798 ft | 377 kts | 50° |
| 2026-04-26 07:12 | 23.14504 | -82.18791 | 5372 ft | 383 kts | 25° |
| 2026-04-26 07:13 | 23.17092 | -82.18127 | 5976 ft | 386 kts | 0° |
| 2026-04-26 07:13 | 23.19760 | -82.18524 | 6592 ft | 390 kts | 345° |
| 2026-04-26 07:13 | 23.22328 | -82.19496 | 7180 ft | 393 kts | 337° |
| 2026-04-26 07:13 | 23.24793 | -82.20796 | 7703 ft | 396 kts | 327° |
| 2026-04-26 07:14 | 23.26773 | -82.22871 | 8191 ft | 400 kts | 303° |
| 2026-04-26 07:14 | 23.27833 | -82.25666 | 8703 ft | 403 kts | 280° |
| 2026-04-26 07:14 | 23.27795 | -82.28711 | 9210 ft | 407 kts | 258° |
| 2026-04-26 07:14 | 23.27021 | -82.31666 | 9692 ft | 407 kts | 254° |
| 2026-04-26 07:15 | 23.26265 | -82.34637 | 10190 ft | 409 kts | 256° |
| 2026-04-26 07:15 | 23.25590 | -82.37617 | 10719 ft | 411 kts | 258° |
| 2026-04-26 07:15 | 23.24940 | -82.40653 | 11268 ft | 413 kts | 259° |
| 2026-04-26 07:15 | 23.24289 | -82.43700 | 11813 ft | 415 kts | 259° |
| 2026-04-26 07:16 | 23.23615 | -82.46765 | 12380 ft | 417 kts | 259° |
| 2026-04-26 07:16 | 23.22918 | -82.49828 | 12899 ft | 419 kts | 258° |
| 2026-04-26 07:16 | 23.22201 | -82.52910 | 13381 ft | 422 kts | 258° |
| 2026-04-26 07:16 | 23.21473 | -82.56006 | 13876 ft | 424 kts | 258° |
| 2026-04-26 07:17 | 23.20738 | -82.59118 | 14357 ft | 426 kts | 258° |
| 2026-04-26 07:17 | 23.19998 | -82.62248 | 14828 ft | 428 kts | 258° |
| 2026-04-26 07:17 | 23.19259 | -82.65390 | 15290 ft | 430 kts | 258° |
| 2026-04-26 07:17 | 23.18515 | -82.68552 | 15724 ft | 432 kts | 258° |
| 2026-04-26 07:18 | 23.17767 | -82.71727 | 16167 ft | 434 kts | 258° |
| 2026-04-26 07:18 | 23.17017 | -82.74908 | 16588 ft | 436 kts | 258° |
| 2026-04-26 07:18 | 23.16263 | -82.78107 | 17011 ft | 438 kts | 258° |
| 2026-04-26 07:18 | 23.15508 | -82.81322 | 17415 ft | 440 kts | 258° |
| 2026-04-26 07:19 | 23.14750 | -82.84546 | 17806 ft | 442 kts | 258° |
| 2026-04-26 07:19 | 23.13988 | -82.87786 | 18205 ft | 444 kts | 258° |
| 2026-04-26 07:19 | 23.13219 | -82.91035 | 18575 ft | 446 kts | 258° |
| 2026-04-26 07:19 | 23.12442 | -82.94306 | 18942 ft | 448 kts | 258° |
| 2026-04-26 07:20 | 23.11664 | -82.97586 | 19301 ft | 450 kts | 258° |
| 2026-04-26 07:20 | 23.10880 | -83.00887 | 19650 ft | 452 kts | 258° |
| 2026-04-26 07:20 | 23.10096 | -83.04197 | 19980 ft | 454 kts | 258° |
| 2026-04-26 07:20 | 23.09307 | -83.07528 | 20294 ft | 456 kts | 258° |
| 2026-04-26 07:21 | 23.08515 | -83.10867 | 20585 ft | 458 kts | 258° |
| 2026-04-26 07:21 | 23.07716 | -83.14223 | 20852 ft | 459 kts | 258° |
| 2026-04-26 07:21 | 23.06925 | -83.17541 | 21123 ft | 461 kts | 258° |
| 2026-04-26 07:21 | 23.06118 | -83.20921 | 21406 ft | 462 kts | 258° |
| 2026-04-26 07:22 | 23.05307 | -83.24318 | 21677 ft | 464 kts | 258° |
| 2026-04-26 07:22 | 23.04497 | -83.27716 | 21949 ft | 466 kts | 258° |
| 2026-04-26 07:22 | 23.03682 | -83.31123 | 22209 ft | 467 kts | 258° |
| 2026-04-26 07:22 | 23.02859 | -83.34555 | 22476 ft | 469 kts | 258° |
| 2026-04-26 07:23 | 23.02035 | -83.37986 | 22715 ft | 471 kts | 258° |
| 2026-04-26 07:23 | 23.01208 | -83.41428 | 22960 ft | 472 kts | 258° |
| 2026-04-26 07:23 | 23.00379 | -83.44881 | 23216 ft | 473 kts | 258° |
| 2026-04-26 07:23 | 22.99547 | -83.48344 | 23462 ft | 475 kts | 258° |
| 2026-04-26 07:24 | 22.98996 | -83.50641 | 23618 ft | 476 kts | 259° |
| 2026-04-26 07:24 | 22.98160 | -83.54115 | 23843 ft | 477 kts | 259° |
| 2026-04-26 07:24 | 22.97319 | -83.57609 | 24111 ft | 478 kts | 259° |
| 2026-04-26 07:24 | 22.96478 | -83.61097 | 24444 ft | 477 kts | 259° |
| 2026-04-26 07:25 | 22.95639 | -83.64574 | 24836 ft | 476 kts | 259° |
| 2026-04-26 07:25 | 22.94799 | -83.68047 | 25248 ft | 474 kts | 259° |
| 2026-04-26 07:25 | 22.93962 | -83.71494 | 25652 ft | 472 kts | 259° |
| 2026-04-26 07:25 | 22.93127 | -83.74930 | 26044 ft | 470 kts | 259° |
| 2026-04-26 07:26 | 22.92296 | -83.78356 | 26448 ft | 468 kts | 259° |
| 2026-04-26 07:26 | 22.91469 | -83.81770 | 26875 ft | 466 kts | 259° |
| 2026-04-26 07:26 | 22.90645 | -83.85163 | 27285 ft | 464 kts | 259° |
| 2026-04-26 07:26 | 22.89821 | -83.88545 | 27712 ft | 462 kts | 259° |
| 2026-04-26 07:27 | 22.89008 | -83.91868 | 28151 ft | 460 kts | 259° |
| 2026-04-26 07:27 | 22.88189 | -83.95217 | 28587 ft | 458 kts | 259° |
| 2026-04-26 07:27 | 22.87380 | -83.98551 | 29025 ft | 456 kts | 259° |
| 2026-04-26 07:27 | 22.86574 | -84.01866 | 29464 ft | 454 kts | 259° |
| 2026-04-26 07:28 | 22.85767 | -84.05171 | 29908 ft | 452 kts | 259° |
| 2026-04-26 07:28 | 22.84962 | -84.08454 | 30365 ft | 449 kts | 259° |
| 2026-04-26 07:28 | 22.84157 | -84.11724 | 30776 ft | 448 kts | 259° |
| 2026-04-26 07:28 | 22.83357 | -84.14976 | 31193 ft | 446 kts | 259° |
| 2026-04-26 07:29 | 22.82565 | -84.18213 | 31589 ft | 444 kts | 259° |
| 2026-04-26 07:29 | 22.81777 | -84.21445 | 31989 ft | 443 kts | 259° |
| 2026-04-26 07:29 | 22.80988 | -84.24669 | 32390 ft | 441 kts | 259° |
| 2026-04-26 07:29 | 22.80197 | -84.27881 | 32788 ft | 439 kts | 259° |
| 2026-04-26 07:30 | 22.79407 | -84.31077 | 33171 ft | 438 kts | 259° |
| 2026-04-26 07:30 | 22.78620 | -84.34253 | 33552 ft | 436 kts | 259° |
| 2026-04-26 07:30 | 22.77834 | -84.37425 | 33910 ft | 435 kts | 259° |
| 2026-04-26 07:30 | 22.77063 | -84.40549 | 34280 ft | 433 kts | 259° |
| 2026-04-26 07:31 | 22.76277 | -84.43739 | 34648 ft | 432 kts | 259° |
| 2026-04-26 07:31 | 22.75514 | -84.46841 | 34986 ft | 431 kts | 259° |
| 2026-04-26 07:31 | 22.74740 | -84.49978 | 35317 ft | 431 kts | 259° |
| 2026-04-26 07:31 | 22.73962 | -84.53115 | 35640 ft | 430 kts | 259° |
| 2026-04-26 07:32 | 22.73184 | -84.56243 | 35879 ft | 430 kts | 259° |
| 2026-04-26 07:32 | 22.71633 | -84.62491 | 35934 ft | 429 kts | 259° |
| 2026-04-26 07:33 | 22.70079 | -84.68735 | 35934 ft | 429 kts | 259° |
| 2026-04-26 07:33 | 22.68525 | -84.74973 | 35934 ft | 429 kts | 259° |
| 2026-04-26 07:34 | 22.66963 | -84.81219 | 35934 ft | 429 kts | 259° |
| 2026-04-26 07:34 | 22.65398 | -84.87464 | 35934 ft | 429 kts | 259° |
| 2026-04-26 07:35 | 22.63834 | -84.93700 | 35933 ft | 429 kts | 259° |
| 2026-04-26 07:35 | 22.62276 | -84.99901 | 35936 ft | 430 kts | 259° |
| 2026-04-26 07:36 | 22.60724 | -85.06189 | 35935 ft | 428 kts | 263° |
| 2026-04-26 07:36 | 22.59768 | -85.12480 | 35939 ft | 427 kts | 265° |
| 2026-04-26 07:37 | 22.58828 | -85.18824 | 35942 ft | 427 kts | 265° |
| 2026-04-26 07:37 | 22.57886 | -85.25165 | 35942 ft | 427 kts | 265° |
| 2026-04-26 07:38 | 22.56941 | -85.31508 | 35939 ft | 426 kts | 265° |
| 2026-04-26 07:38 | 22.55996 | -85.37837 | 35933 ft | 426 kts | 265° |
| 2026-04-26 07:39 | 22.55047 | -85.44168 | 35926 ft | 426 kts | 265° |
| 2026-04-26 07:39 | 22.54104 | -85.50506 | 35927 ft | 427 kts | 265° |
| 2026-04-26 07:40 | 22.53145 | -85.56846 | 35923 ft | 427 kts | 265° |
| 2026-04-26 07:40 | 22.52188 | -85.63180 | 35922 ft | 427 kts | 265° |
| 2026-04-26 07:41 | 22.51241 | -85.69478 | 35923 ft | 427 kts | 265° |
| 2026-04-26 07:41 | 22.50281 | -85.75809 | 35921 ft | 427 kts | 264° |
| 2026-04-26 07:42 | 22.49316 | -85.82144 | 35921 ft | 427 kts | 264° |
| 2026-04-26 07:42 | 22.48346 | -85.88488 | 35921 ft | 427 kts | 264° |
| 2026-04-26 07:43 | 22.47374 | -85.94832 | 35923 ft | 428 kts | 264° |
| 2026-04-26 07:43 | 22.46776 | -86.01183 | 35923 ft | 422 kts | 276° |
| 2026-04-26 07:44 | 22.47501 | -86.07456 | 35922 ft | 420 kts | 280° |
| 2026-04-26 07:44 | 22.48274 | -86.13735 | 35927 ft | 421 kts | 279° |
| 2026-04-26 07:45 | 22.49030 | -86.20018 | 35931 ft | 421 kts | 279° |
| 2026-04-26 07:45 | 22.49787 | -86.26303 | 35935 ft | 421 kts | 279° |
| 2026-04-26 07:46 | 22.50542 | -86.32586 | 35933 ft | 421 kts | 279° |
| 2026-04-26 07:46 | 22.51298 | -86.38831 | 35935 ft | 421 kts | 279° |
| 2026-04-26 07:47 | 22.52055 | -86.45117 | 35932 ft | 421 kts | 279° |
| 2026-04-26 07:47 | 22.52806 | -86.51399 | 35933 ft | 421 kts | 279° |
| 2026-04-26 07:48 | 22.53554 | -86.57687 | 35934 ft | 421 kts | 279° |
| 2026-04-26 07:48 | 22.54296 | -86.63978 | 35934 ft | 421 kts | 279° |
| 2026-04-26 07:49 | 22.55040 | -86.70271 | 35932 ft | 421 kts | 279° |
| 2026-04-26 07:49 | 22.55786 | -86.76551 | 35931 ft | 421 kts | 279° |
| 2026-04-26 07:50 | 22.56882 | -86.85984 | 35929 ft | 421 kts | 279° |
| 2026-04-26 07:50 | 22.57621 | -86.92272 | 35927 ft | 421 kts | 279° |
| 2026-04-26 07:51 | 22.58360 | -86.98567 | 35924 ft | 421 kts | 279° |
| 2026-04-26 07:51 | 22.59090 | -87.04860 | 35924 ft | 422 kts | 279° |
| 2026-04-26 07:52 | 22.59818 | -87.11119 | 35922 ft | 422 kts | 279° |
| 2026-04-26 07:52 | 22.60550 | -87.17429 | 35921 ft | 422 kts | 279° |
| 2026-04-26 07:53 | 22.61272 | -87.23738 | 35920 ft | 422 kts | 279° |
| 2026-04-26 07:53 | 22.61989 | -87.30041 | 35916 ft | 422 kts | 279° |
| 2026-04-26 07:54 | 22.62709 | -87.36353 | 35916 ft | 422 kts | 279° |
| 2026-04-26 07:54 | 22.63426 | -87.42666 | 35915 ft | 422 kts | 279° |
| 2026-04-26 07:55 | 22.64139 | -87.48973 | 35914 ft | 422 kts | 279° |
| 2026-04-26 07:55 | 22.64853 | -87.55290 | 35915 ft | 423 kts | 279° |
| 2026-04-26 07:56 | 22.65569 | -87.61622 | 35914 ft | 423 kts | 279° |
| 2026-04-26 07:56 | 22.66279 | -87.67917 | 35916 ft | 424 kts | 279° |
| 2026-04-26 07:57 | 22.66983 | -87.74255 | 35916 ft | 424 kts | 278° |
| 2026-04-26 07:57 | 22.67682 | -87.80596 | 35913 ft | 424 kts | 279° |
| 2026-04-26 07:58 | 22.68381 | -87.86930 | 35911 ft | 423 kts | 279° |
| 2026-04-26 07:58 | 22.69082 | -87.93270 | 35908 ft | 423 kts | 279° |
| 2026-04-26 07:59 | 22.69777 | -87.99602 | 35904 ft | 423 kts | 278° |
| 2026-04-26 07:59 | 22.70476 | -88.05941 | 35897 ft | 424 kts | 278° |
| 2026-04-26 08:00 | 22.71169 | -88.12293 | 35895 ft | 425 kts | 278° |
| 2026-04-26 08:00 | 22.71859 | -88.18649 | 35897 ft | 425 kts | 278° |
| 2026-04-26 08:01 | 22.72552 | -88.25012 | 35897 ft | 425 kts | 278° |
| 2026-04-26 08:01 | 22.73245 | -88.31369 | 35895 ft | 424 kts | 278° |
| 2026-04-26 08:02 | 22.73923 | -88.37717 | 35893 ft | 425 kts | 278° |
| 2026-04-26 08:02 | 22.74599 | -88.44038 | 35771 ft | 424 kts | 278° |
| 2026-04-26 08:03 | 22.75278 | -88.50383 | 35702 ft | 424 kts | 278° |
| 2026-04-26 08:03 | 22.75953 | -88.56736 | 35696 ft | 425 kts | 278° |
| 2026-04-26 08:04 | 22.76626 | -88.63097 | 35700 ft | 425 kts | 278° |
| 2026-04-26 08:04 | 22.77304 | -88.69469 | 35705 ft | 426 kts | 278° |
| 2026-04-26 08:05 | 22.77973 | -88.75847 | 35712 ft | 425 kts | 278° |
| 2026-04-26 08:05 | 22.78634 | -88.82220 | 35717 ft | 425 kts | 278° |
| 2026-04-26 08:06 | 22.79187 | -88.87521 | 35729 ft | 425 kts | 278° |
| 2026-04-26 08:06 | 22.79862 | -88.93896 | 35731 ft | 426 kts | 278° |
| 2026-04-26 08:07 | 22.80630 | -89.01314 | 35735 ft | 426 kts | 278° |
| 2026-04-26 08:07 | 22.81172 | -89.06665 | 35737 ft | 426 kts | 278° |
| 2026-04-26 08:08 | 22.81822 | -89.13051 | 35743 ft | 427 kts | 278° |
| 2026-04-26 08:08 | 22.82476 | -89.19448 | 35751 ft | 427 kts | 278° |
| 2026-04-26 08:09 | 22.83125 | -89.25801 | 35754 ft | 427 kts | 278° |
| 2026-04-26 08:09 | 22.83782 | -89.32211 | 35761 ft | 427 kts | 278° |
| 2026-04-26 08:10 | 22.84434 | -89.38623 | 35763 ft | 427 kts | 278° |
| 2026-04-26 08:10 | 22.85079 | -89.45035 | 35764 ft | 427 kts | 277° |
| 2026-04-26 08:11 | 22.85716 | -89.51407 | 35771 ft | 427 kts | 277° |
| 2026-04-26 08:11 | 22.86359 | -89.57811 | 35780 ft | 428 kts | 278° |
| 2026-04-26 08:12 | 22.87001 | -89.64230 | 35778 ft | 427 kts | 277° |
| 2026-04-26 08:12 | 22.87631 | -89.70641 | 35797 ft | 427 kts | 277° |
| 2026-04-26 08:13 | 22.88261 | -89.77048 | 35846 ft | 428 kts | 277° |
| 2026-04-26 08:13 | 22.88894 | -89.83478 | 35862 ft | 428 kts | 277° |
| 2026-04-26 08:14 | 22.89521 | -89.89902 | 35869 ft | 428 kts | 277° |
| 2026-04-26 08:14 | 22.90150 | -89.96325 | 35876 ft | 428 kts | 277° |
| 2026-04-26 08:15 | 22.90775 | -90.02745 | 35878 ft | 428 kts | 277° |
| 2026-04-26 08:15 | 22.91392 | -90.09174 | 35874 ft | 429 kts | 277° |
| 2026-04-26 08:16 | 22.92010 | -90.15609 | 35871 ft | 429 kts | 277° |
| 2026-04-26 08:16 | 22.92632 | -90.22044 | 35859 ft | 429 kts | 277° |
| 2026-04-26 08:17 | 22.93251 | -90.28486 | 35874 ft | 429 kts | 277° |
| 2026-04-26 08:17 | 22.93859 | -90.34937 | 35863 ft | 429 kts | 277° |
| 2026-04-26 08:18 | 22.94462 | -90.41371 | 35858 ft | 429 kts | 277° |
| 2026-04-26 08:18 | 22.95062 | -90.47768 | 35872 ft | 429 kts | 277° |
| 2026-04-26 08:19 | 22.95670 | -90.54214 | 35872 ft | 429 kts | 277° |
| 2026-04-26 08:19 | 22.96271 | -90.60661 | 35871 ft | 429 kts | 277° |
| 2026-04-26 08:20 | 22.96881 | -90.67111 | 35856 ft | 430 kts | 277° |
| 2026-04-26 08:20 | 22.97477 | -90.73568 | 35867 ft | 430 kts | 277° |
| 2026-04-26 08:21 | 22.98058 | -90.79987 | 35869 ft | 430 kts | 277° |
| 2026-04-26 08:21 | 22.98653 | -90.86451 | 35860 ft | 431 kts | 277° |
| 2026-04-26 08:22 | 22.99252 | -90.92915 | 35872 ft | 430 kts | 277° |
| 2026-04-26 08:22 | 22.99839 | -90.99394 | 35872 ft | 431 kts | 277° |
| 2026-04-26 08:23 | 23.00414 | -91.05867 | 35868 ft | 431 kts | 277° |
| 2026-04-26 08:23 | 23.00991 | -91.12340 | 35865 ft | 431 kts | 277° |
| 2026-04-26 08:24 | 23.01575 | -91.18828 | 35864 ft | 432 kts | 277° |
| 2026-04-26 08:24 | 23.02164 | -91.25317 | 35862 ft | 432 kts | 277° |
| 2026-04-26 08:25 | 23.02739 | -91.31810 | 35872 ft | 432 kts | 277° |
| 2026-04-26 08:25 | 23.03314 | -91.38314 | 35870 ft | 432 kts | 277° |
| 2026-04-26 08:26 | 23.03886 | -91.44777 | 35872 ft | 433 kts | 277° |
| 2026-04-26 08:26 | 23.04463 | -91.51303 | 35878 ft | 434 kts | 277° |
| 2026-04-26 08:27 | 23.05018 | -91.57826 | 35881 ft | 434 kts | 277° |
| 2026-04-26 08:27 | 23.05585 | -91.64360 | 35881 ft | 434 kts | 277° |
| 2026-04-26 08:28 | 23.06152 | -91.70892 | 35879 ft | 434 kts | 277° |
| 2026-04-26 08:28 | 23.06715 | -91.77419 | 35865 ft | 434 kts | 277° |
| 2026-04-26 08:29 | 23.07270 | -91.83950 | 35879 ft | 435 kts | 277° |
| 2026-04-26 08:29 | 23.07818 | -91.90448 | 35881 ft | 435 kts | 277° |
| 2026-04-26 08:30 | 23.08366 | -91.96986 | 35880 ft | 435 kts | 277° |
| 2026-04-26 08:30 | 23.08923 | -92.03528 | 35880 ft | 434 kts | 277° |
| 2026-04-26 08:31 | 23.09475 | -92.10063 | 35871 ft | 434 kts | 277° |
| 2026-04-26 08:31 | 23.10016 | -92.16606 | 35881 ft | 434 kts | 277° |
| 2026-04-26 08:32 | 23.10556 | -92.23150 | 35867 ft | 435 kts | 277° |
| 2026-04-26 08:32 | 23.11097 | -92.29690 | 35882 ft | 434 kts | 277° |
| 2026-04-26 08:33 | 23.11638 | -92.36219 | 35874 ft | 434 kts | 277° |
| 2026-04-26 08:33 | 23.12166 | -92.42709 | 35877 ft | 434 kts | 277° |
| 2026-04-26 08:34 | 23.12697 | -92.49243 | 35872 ft | 434 kts | 277° |
| 2026-04-26 08:34 | 23.13229 | -92.55776 | 35874 ft | 434 kts | 277° |
| 2026-04-26 08:35 | 23.13754 | -92.62315 | 35874 ft | 434 kts | 277° |
| 2026-04-26 08:35 | 23.14274 | -92.68860 | 35859 ft | 434 kts | 277° |
| 2026-04-26 08:36 | 23.14798 | -92.75401 | 35877 ft | 434 kts | 277° |
| 2026-04-26 08:36 | 23.15321 | -92.81949 | 35866 ft | 434 kts | 277° |
| 2026-04-26 08:37 | 23.15831 | -92.88491 | 35868 ft | 434 kts | 277° |
| 2026-04-26 08:37 | 23.16342 | -92.95033 | 35874 ft | 435 kts | 277° |
| 2026-04-26 08:38 | 23.16855 | -93.01576 | 35872 ft | 434 kts | 277° |
| 2026-04-26 08:38 | 23.17364 | -93.08111 | 35871 ft | 434 kts | 277° |
| 2026-04-26 08:39 | 23.17864 | -93.14638 | 35866 ft | 433 kts | 277° |
| 2026-04-26 08:39 | 23.18364 | -93.21160 | 35861 ft | 433 kts | 277° |
| 2026-04-26 08:40 | 23.18855 | -93.27684 | 35863 ft | 433 kts | 277° |
| 2026-04-26 08:40 | 23.19347 | -93.34205 | 35865 ft | 433 kts | 277° |
| 2026-04-26 08:41 | 23.19841 | -93.40689 | 35862 ft | 433 kts | 277° |
| 2026-04-26 08:41 | 23.20331 | -93.47215 | 35855 ft | 433 kts | 277° |
| 2026-04-26 08:42 | 23.20821 | -93.53746 | 35853 ft | 434 kts | 277° |
| 2026-04-26 08:42 | 23.21306 | -93.60285 | 35861 ft | 434 kts | 277° |
| 2026-04-26 08:43 | 23.21790 | -93.66828 | 35854 ft | 434 kts | 277° |
| 2026-04-26 08:43 | 23.22270 | -93.73366 | 35861 ft | 433 kts | 277° |
| 2026-04-26 08:44 | 23.22748 | -93.79892 | 35859 ft | 433 kts | 277° |
| 2026-04-26 08:44 | 23.23217 | -93.86411 | 35856 ft | 432 kts | 277° |
| 2026-04-26 08:45 | 23.23688 | -93.92894 | 35853 ft | 433 kts | 277° |
| 2026-04-26 08:45 | 23.24152 | -93.99427 | 35851 ft | 433 kts | 277° |
| 2026-04-26 08:46 | 23.24616 | -94.05964 | 35854 ft | 433 kts | 277° |
| 2026-04-26 08:46 | 23.25074 | -94.12484 | 35860 ft | 432 kts | 277° |
| 2026-04-26 08:47 | 23.25539 | -94.19000 | 35857 ft | 431 kts | 277° |
| 2026-04-26 08:47 | 23.25988 | -94.25508 | 35854 ft | 431 kts | 277° |
| 2026-04-26 08:48 | 23.26443 | -94.32012 | 35852 ft | 431 kts | 277° |
| 2026-04-26 08:48 | 23.26901 | -94.38484 | 35849 ft | 431 kts | 277° |
| 2026-04-26 08:49 | 23.27346 | -94.44993 | 35847 ft | 431 kts | 277° |
| 2026-04-26 08:49 | 23.27708 | -94.50399 | 35853 ft | 431 kts | 277° |
| 2026-04-26 08:50 | 23.28149 | -94.56912 | 35853 ft | 431 kts | 277° |
| 2026-04-26 08:50 | 23.28939 | -94.63346 | 35854 ft | 428 kts | 288° |
| 2026-04-26 08:51 | 23.32311 | -94.72323 | 35847 ft | 427 kts | 294° |
| 2026-04-26 08:52 | 23.34624 | -94.78279 | 35846 ft | 427 kts | 294° |
| 2026-04-26 08:52 | 23.36917 | -94.84202 | 35849 ft | 428 kts | 294° |
| 2026-04-26 08:53 | 23.39227 | -94.90173 | 35848 ft | 428 kts | 294° |
| 2026-04-26 08:53 | 23.41533 | -94.96145 | 35848 ft | 427 kts | 294° |
| 2026-04-26 08:54 | 23.43827 | -95.02114 | 35848 ft | 427 kts | 293° |
| 2026-04-26 08:54 | 23.46112 | -95.08083 | 35841 ft | 426 kts | 293° |
| 2026-04-26 08:55 | 23.48392 | -95.14036 | 35842 ft | 426 kts | 294° |
| 2026-04-26 08:55 | 23.50680 | -95.19988 | 35839 ft | 425 kts | 294° |
| 2026-04-26 08:56 | 23.52961 | -95.25934 | 35841 ft | 425 kts | 293° |
| 2026-04-26 08:56 | 23.55234 | -95.31888 | 35839 ft | 425 kts | 293° |
| 2026-04-26 08:57 | 23.57499 | -95.37807 | 35836 ft | 426 kts | 293° |
| 2026-04-26 08:57 | 23.59784 | -95.43769 | 35839 ft | 426 kts | 293° |
| 2026-04-26 08:58 | 23.62059 | -95.49732 | 35839 ft | 426 kts | 293° |
| 2026-04-26 08:58 | 23.64325 | -95.55704 | 35837 ft | 426 kts | 293° |
| 2026-04-26 08:59 | 23.66584 | -95.61676 | 35840 ft | 425 kts | 293° |
| 2026-04-26 08:59 | 23.68856 | -95.67641 | 35838 ft | 425 kts | 293° |
| 2026-04-26 09:00 | 23.71109 | -95.73566 | 35838 ft | 425 kts | 293° |
| 2026-04-26 09:00 | 23.73361 | -95.79532 | 35841 ft | 425 kts | 293° |
| 2026-04-26 09:01 | 23.75615 | -95.85501 | 35839 ft | 425 kts | 293° |
| 2026-04-26 09:01 | 23.77868 | -95.91466 | 35841 ft | 425 kts | 293° |
| 2026-04-26 09:02 | 23.80128 | -95.97427 | 35839 ft | 424 kts | 293° |
| 2026-04-26 09:02 | 23.82381 | -96.03390 | 35839 ft | 424 kts | 293° |
| 2026-04-26 09:03 | 23.84610 | -96.09322 | 35839 ft | 424 kts | 293° |
| 2026-04-26 09:03 | 23.86850 | -96.15284 | 35833 ft | 425 kts | 293° |
| 2026-04-26 09:04 | 23.89086 | -96.21259 | 35831 ft | 425 kts | 293° |
| 2026-04-26 09:04 | 23.91321 | -96.27240 | 35826 ft | 425 kts | 293° |
| 2026-04-26 09:05 | 23.93559 | -96.33227 | 35822 ft | 424 kts | 293° |
| 2026-04-26 09:05 | 23.95806 | -96.39204 | 35821 ft | 424 kts | 293° |
| 2026-04-26 09:06 | 23.98037 | -96.45179 | 35821 ft | 424 kts | 293° |
| 2026-04-26 09:06 | 24.00259 | -96.51158 | 35822 ft | 424 kts | 293° |
| 2026-04-26 09:07 | 24.02465 | -96.57096 | 35821 ft | 424 kts | 293° |
| 2026-04-26 09:07 | 24.04685 | -96.63079 | 35824 ft | 424 kts | 293° |
| 2026-04-26 09:08 | 24.06906 | -96.69063 | 35826 ft | 424 kts | 292° |
| 2026-04-26 09:08 | 24.09119 | -96.75050 | 35827 ft | 424 kts | 292° |
| 2026-04-26 09:09 | 24.11333 | -96.81045 | 35832 ft | 424 kts | 292° |
| 2026-04-26 09:09 | 24.13539 | -96.87027 | 35827 ft | 424 kts | 292° |
| 2026-04-26 09:10 | 24.15750 | -96.93010 | 35825 ft | 423 kts | 292° |
| 2026-04-26 09:10 | 24.17954 | -96.98989 | 35823 ft | 423 kts | 292° |
| 2026-04-26 09:11 | 24.20146 | -97.04971 | 35819 ft | 423 kts | 292° |
| 2026-04-26 09:11 | 24.22330 | -97.10940 | 35815 ft | 422 kts | 292° |
| 2026-04-26 09:12 | 24.24516 | -97.16913 | 35814 ft | 421 kts | 292° |
| 2026-04-26 09:12 | 24.26681 | -97.22839 | 35819 ft | 421 kts | 292° |
| 2026-04-26 09:13 | 24.28879 | -97.28831 | 35828 ft | 421 kts | 292° |
| 2026-04-26 09:13 | 24.31050 | -97.34785 | 35831 ft | 421 kts | 292° |
| 2026-04-26 09:14 | 24.33199 | -97.40707 | 35831 ft | 420 kts | 292° |
| 2026-04-26 09:14 | 24.35364 | -97.46667 | 35827 ft | 421 kts | 292° |
| 2026-04-26 09:15 | 24.37533 | -97.52621 | 35825 ft | 421 kts | 292° |
| 2026-04-26 09:15 | 24.39705 | -97.58588 | 35833 ft | 420 kts | 292° |
| 2026-04-26 09:16 | 24.41870 | -97.64540 | 35831 ft | 420 kts | 292° |
| 2026-04-26 09:16 | 24.44029 | -97.70502 | 35832 ft | 420 kts | 292° |
| 2026-04-26 09:17 | 24.46182 | -97.76462 | 35832 ft | 419 kts | 292° |
| 2026-04-26 09:17 | 24.48326 | -97.82419 | 35830 ft | 419 kts | 292° |
| 2026-04-26 09:18 | 24.50468 | -97.88381 | 35825 ft | 419 kts | 292° |
| 2026-04-26 09:18 | 24.52595 | -97.94294 | 35825 ft | 419 kts | 292° |
| 2026-04-26 09:19 | 24.54742 | -98.00258 | 35831 ft | 420 kts | 292° |
| 2026-04-26 09:19 | 24.56877 | -98.06220 | 35832 ft | 420 kts | 292° |
| 2026-04-26 09:20 | 24.59015 | -98.12190 | 35830 ft | 420 kts | 292° |
| 2026-04-26 09:20 | 24.61154 | -98.18160 | 35827 ft | 419 kts | 291° |
| 2026-04-26 09:21 | 24.63286 | -98.24133 | 35826 ft | 419 kts | 291° |
| 2026-04-26 09:21 | 24.65401 | -98.30057 | 35831 ft | 419 kts | 291° |
| 2026-04-26 09:22 | 24.67525 | -98.36011 | 35837 ft | 418 kts | 291° |
| 2026-04-26 09:22 | 24.69650 | -98.41981 | 35381 ft | 418 kts | 291° |
| 2026-04-26 09:22 | 24.70709 | -98.44964 | 35130 ft | 419 kts | 291° |
| 2026-04-26 09:23 | 24.71770 | -98.47950 | 34883 ft | 420 kts | 291° |
| 2026-04-26 09:23 | 24.72832 | -98.50948 | 34628 ft | 421 kts | 291° |
| 2026-04-26 09:23 | 24.73894 | -98.53947 | 34372 ft | 422 kts | 291° |
| 2026-04-26 09:23 | 24.74961 | -98.56961 | 33953 ft | 423 kts | 291° |
| 2026-04-26 09:24 | 24.76032 | -98.59988 | 33465 ft | 424 kts | 291° |
| 2026-04-26 09:24 | 24.77104 | -98.63020 | 32967 ft | 425 kts | 291° |
| 2026-04-26 09:24 | 24.78182 | -98.66061 | 32482 ft | 428 kts | 291° |
| 2026-04-26 09:24 | 24.79265 | -98.69119 | 31973 ft | 430 kts | 291° |
| 2026-04-26 09:25 | 24.80352 | -98.72193 | 31468 ft | 431 kts | 291° |
| 2026-04-26 09:25 | 24.81439 | -98.75275 | 30957 ft | 433 kts | 291° |
| 2026-04-26 09:25 | 24.82535 | -98.78382 | 30442 ft | 435 kts | 291° |
| 2026-04-26 09:25 | 24.83618 | -98.81454 | 29936 ft | 437 kts | 291° |
| 2026-04-26 09:26 | 24.84719 | -98.84586 | 29426 ft | 439 kts | 290° |
| 2026-04-26 09:26 | 24.85823 | -98.87731 | 28914 ft | 441 kts | 291° |
| 2026-04-26 09:26 | 24.86935 | -98.90896 | 28405 ft | 444 kts | 291° |
| 2026-04-26 09:26 | 24.88049 | -98.94070 | 27898 ft | 446 kts | 291° |
| 2026-04-26 09:27 | 24.89170 | -98.97263 | 27401 ft | 448 kts | 291° |
| 2026-04-26 09:27 | 24.90300 | -99.00481 | 26906 ft | 451 kts | 291° |
| 2026-04-26 09:27 | 24.91433 | -99.03714 | 26415 ft | 454 kts | 291° |
| 2026-04-26 09:27 | 24.92575 | -99.06975 | 25931 ft | 456 kts | 291° |
| 2026-04-26 09:28 | 24.93870 | -99.10174 | 25390 ft | 459 kts | 300° |
| 2026-04-26 09:28 | 24.95824 | -99.12964 | 24833 ft | 463 kts | 311° |
| 2026-04-26 09:28 | 24.98027 | -99.15581 | 24259 ft | 467 kts | 311° |
| 2026-04-26 09:28 | 25.00253 | -99.18213 | 23682 ft | 470 kts | 311° |
| 2026-04-26 09:29 | 25.02457 | -99.20812 | 23072 ft | 468 kts | 311° |
| 2026-04-26 09:29 | 25.04677 | -99.23427 | 22457 ft | 465 kts | 311° |
| 2026-04-26 09:29 | 25.06871 | -99.26013 | 21777 ft | 456 kts | 311° |
| 2026-04-26 09:29 | 25.08984 | -99.28509 | 21612 ft | 434 kts | 311° |
| 2026-04-26 09:30 | 25.10995 | -99.30894 | 21478 ft | 414 kts | 311° |
| 2026-04-26 09:30 | 25.12908 | -99.33173 | 21351 ft | 396 kts | 311° |
| 2026-04-26 09:30 | 25.14741 | -99.35360 | 21224 ft | 380 kts | 311° |
| 2026-04-26 09:30 | 25.16508 | -99.37471 | 20992 ft | 370 kts | 311° |
| 2026-04-26 09:31 | 25.18242 | -99.39535 | 20554 ft | 365 kts | 311° |
| 2026-04-26 09:31 | 25.19990 | -99.41556 | 20061 ft | 362 kts | 316° |
| 2026-04-26 09:31 | 25.22039 | -99.43162 | 19652 ft | 360 kts | 330° |
| 2026-04-26 09:31 | 25.24238 | -99.44303 | 19475 ft | 349 kts | 332° |
| 2026-04-26 09:32 | 25.26417 | -99.45431 | 19097 ft | 344 kts | 332° |
| 2026-04-26 09:32 | 25.28574 | -99.46552 | 18661 ft | 341 kts | 332° |
| 2026-04-26 09:32 | 25.30709 | -99.47668 | 18213 ft | 338 kts | 332° |
| 2026-04-26 09:32 | 25.32828 | -99.48776 | 17750 ft | 336 kts | 332° |
| 2026-04-26 09:33 | 25.34936 | -99.49876 | 17285 ft | 334 kts | 332° |
| 2026-04-26 09:33 | 25.37037 | -99.50967 | 16849 ft | 332 kts | 332° |
| 2026-04-26 09:33 | 25.39123 | -99.52049 | 16439 ft | 328 kts | 332° |
| 2026-04-26 09:33 | 25.41153 | -99.53103 | 16315 ft | 317 kts | 332° |
| 2026-04-26 09:34 | 25.43117 | -99.54121 | 16196 ft | 307 kts | 332° |
| 2026-04-26 09:34 | 25.45050 | -99.55122 | 15738 ft | 308 kts | 332° |
| 2026-04-26 09:34 | 25.46949 | -99.56226 | 15237 ft | 308 kts | 323° |
| 2026-04-26 09:34 | 25.48546 | -99.57797 | 14733 ft | 308 kts | 309° |
| 2026-04-26 09:35 | 25.49375 | -99.59068 | 14400 ft | 308 kts | 301° |
| 2026-04-26 09:35 | 25.50485 | -99.61082 | 13893 ft | 302 kts | 301° |
| 2026-04-26 09:35 | 25.51560 | -99.63030 | 13394 ft | 292 kts | 301° |
| 2026-04-26 09:35 | 25.52610 | -99.64926 | 12897 ft | 285 kts | 301° |
| 2026-04-26 09:36 | 25.53634 | -99.66771 | 12391 ft | 278 kts | 302° |
| 2026-04-26 09:36 | 25.54637 | -99.68577 | 11885 ft | 272 kts | 302° |
| 2026-04-26 09:36 | 25.55617 | -99.70344 | 11387 ft | 267 kts | 302° |
| 2026-04-26 09:36 | 25.56578 | -99.72080 | 10884 ft | 263 kts | 301° |
| 2026-04-26 09:37 | 25.57517 | -99.73806 | 10381 ft | 260 kts | 300° |
| 2026-04-26 09:37 | 25.58439 | -99.75521 | 9870 ft | 258 kts | 301° |
| 2026-04-26 09:37 | 25.59371 | -99.77211 | 9385 ft | 256 kts | 301° |
| 2026-04-26 09:37 | 25.60303 | -99.78891 | 8869 ft | 255 kts | 301° |
| 2026-04-26 09:38 | 25.61230 | -99.80563 | 8373 ft | 254 kts | 301° |
| 2026-04-26 09:38 | 25.62158 | -99.82241 | 7800 ft | 256 kts | 301° |
| 2026-04-26 09:38 | 25.63103 | -99.83948 | 7096 ft | 263 kts | 300° |
| 2026-04-26 09:38 | 25.64065 | -99.85688 | 6383 ft | 266 kts | 300° |
| 2026-04-26 09:39 | 25.65014 | -99.87404 | 5736 ft | 254 kts | 300° |
| 2026-04-26 09:39 | 25.65894 | -99.88996 | 5368 ft | 236 kts | 300° |
| 2026-04-26 09:39 | 25.66720 | -99.90488 | 5068 ft | 219 kts | 300° |
| 2026-04-26 09:39 | 25.67483 | -99.91871 | 4814 ft | 201 kts | 299° |
| 2026-04-26 09:40 | 25.68179 | -99.93132 | 4562 ft | 180 kts | 299° |
| 2026-04-26 09:40 | 25.68803 | -99.94262 | 4304 ft | 165 kts | 299° |
| 2026-04-26 09:40 | 25.69396 | -99.95336 | 4086 ft | 163 kts | 299° |
| 2026-04-26 09:40 | 25.69984 | -99.96404 | 3875 ft | 162 kts | 298° |
| 2026-04-26 09:41 | 25.70569 | -99.97467 | 3655 ft | 162 kts | 298° |
| 2026-04-26 09:41 | 25.71157 | -99.98531 | 3446 ft | 161 kts | 298° |
| 2026-04-26 09:41 | 25.71745 | -99.99598 | 3232 ft | 162 kts | 298° |
| 2026-04-26 09:41 | 25.72332 | -100.00662 | 3014 ft | 161 kts | 298° |
| 2026-04-26 09:42 | 25.72918 | -100.01727 | 2793 ft | 161 kts | 300° |
| 2026-04-26 09:42 | 25.73499 | -100.02782 | 2578 ft | 159 kts | 301° |
| 2026-04-26 09:42 | 25.74070 | -100.03819 | 2379 ft | 155 kts | 302° |
| 2026-04-26 09:42 | 25.74625 | -100.04825 | 2175 ft | 151 kts | 301° |
| 2026-04-26 09:43 | 25.75168 | -100.05812 | 1977 ft | 149 kts | 301° |
| 2026-04-26 09:43 | 25.75709 | -100.06793 | 1778 ft | 149 kts | 301° |
| 2026-04-26 09:43 | 25.76245 | -100.07766 | 1613 ft | 148 kts | 301° |
| 2026-04-26 09:43 | 25.76771 | -100.08748 | 1483 ft | 148 kts | 302° |
| 2026-04-26 09:44 | 25.77291 | -100.09674 | 1334 ft | 131 kts | 301° |
| 2026-04-26 09:44 | 25.77692 | -100.10406 | 1331 ft | 87 kts | 301° |
| 2026-04-26 09:44 | 25.77931 | -100.10842 | 1331 ft | 54 kts | 301° |
| 2026-04-26 09:44 | 25.78111 | -100.11170 | 1333 ft | 27 kts | 301° |
| 2026-04-26 09:45 | 25.78087 | -100.11220 | 1331 ft | 6 kts | 183° |
| 2026-04-26 09:45 | 25.78041 | -100.11244 | 1334 ft | 9 kts | 213° |
| 2026-04-26 09:45 | 25.77985 | -100.11284 | 1331 ft | 11 kts | 213° |
| 2026-04-26 09:45 | 25.77953 | -100.11280 | 1331 ft | 4 kts | 114° |
| 2026-04-26 09:46 | 25.77934 | -100.11243 | 1335 ft | 7 kts | 132° |
| 2026-04-26 09:46 | 25.77889 | -100.11257 | 1331 ft | 8 kts | 211° |
| 2026-04-26 09:46 | 25.77851 | -100.11283 | 1332 ft | 0 kts | 211° |